createdAt,value
2023-11-23T00:00:36.195Z,79.22
2023-11-23T00:01:37.998Z,79.71
2023-11-23T00:02:40.543Z,79.46
2023-11-23T00:03:42.433Z,79.92
2023-11-23T00:04:44.258Z,79.98
2023-11-23T00:05:45.983Z,79.54
2023-11-23T00:06:47.744Z,79.14
2023-11-23T00:07:49.450Z,78.82
2023-11-23T00:08:51.165Z,79.56
2023-11-23T00:09:52.832Z,79.83
2023-11-23T00:10:56.080Z,79.72
2023-11-23T00:11:58.203Z,79.63
2023-11-23T00:12:59.978Z,79.46
2023-11-23T00:14:02.006Z,80.03
2023-11-23T00:15:04.611Z,79.28
2023-11-23T00:16:07.366Z,79.38
2023-11-23T00:17:09.122Z,78.86
2023-11-23T00:18:10.991Z,79.57
2023-11-23T00:19:12.910Z,79.62
2023-11-23T00:20:14.867Z,79.17
2023-11-23T00:21:16.649Z,79.22
2023-11-23T00:22:18.353Z,78.99
2023-11-23T00:23:19.976Z,78.82
2023-11-23T00:24:21.762Z,78.80
2023-11-23T00:25:23.443Z,79.09
2023-11-23T00:26:26.505Z,79.31
2023-11-23T00:27:34.164Z,79.29
2023-11-23T00:28:35.820Z,79.37
2023-11-23T00:29:38.411Z,79.78
2023-11-23T00:30:40.118Z,78.92
2023-11-23T00:31:41.791Z,78.91
2023-11-23T00:32:43.596Z,79.68
2023-11-23T00:33:45.635Z,79.50
2023-11-23T00:34:47.638Z,79.69
2023-11-23T00:35:49.459Z,79.11
2023-11-23T00:36:51.588Z,79.00
2023-11-23T00:37:53.217Z,79.04
2023-11-23T00:38:54.891Z,79.17
2023-11-23T00:39:56.816Z,79.00
2023-11-23T00:40:58.545Z,79.14
2023-11-23T00:42:01.602Z,78.78
2023-11-23T00:43:03.397Z,79.31
2023-11-23T00:44:11.144Z,78.96
2023-11-23T00:45:12.816Z,78.70
2023-11-23T00:46:14.630Z,78.92
2023-11-23T00:47:16.312Z,79.51
2023-11-23T00:48:18.360Z,79.09
2023-11-23T00:49:20.161Z,79.20
2023-11-23T00:50:21.889Z,78.87
2023-11-23T00:51:24.963Z,78.74
2023-11-23T00:52:26.605Z,78.87
2023-11-23T00:53:28.577Z,79.17
2023-11-23T00:54:30.326Z,79.27
2023-11-23T00:55:32.034Z,79.61
2023-11-23T00:56:33.831Z,79.09
2023-11-23T00:57:37.129Z,78.36
2023-11-23T00:58:41.867Z,79.05
2023-11-23T00:59:43.534Z,79.48
2023-11-23T01:00:47.780Z,78.83
2023-11-23T01:01:49.868Z,78.82
2023-11-23T01:02:51.875Z,79.11
2023-11-23T01:03:56.223Z,78.33
2023-11-23T01:04:58.126Z,78.73
2023-11-23T01:06:00.002Z,78.67
2023-11-23T01:07:02.220Z,78.41
2023-11-23T01:08:04.594Z,78.07
2023-11-23T01:09:06.555Z,78.26
2023-11-23T01:10:09.075Z,78.11
2023-11-23T01:11:10.787Z,77.97
2023-11-23T01:12:12.826Z,78.67
2023-11-23T01:13:15.941Z,77.79
2023-11-23T01:14:18.962Z,77.95
2023-11-23T01:15:20.914Z,77.20
2023-11-23T01:16:22.633Z,77.40
2023-11-23T01:17:26.954Z,77.80
2023-11-23T01:18:29.323Z,77.75
2023-11-23T01:19:31.193Z,76.76
2023-11-23T01:20:33.132Z,76.83
2023-11-23T01:21:34.865Z,76.94
2023-11-23T01:22:36.743Z,76.89
2023-11-23T01:23:38.491Z,77.43
2023-11-23T01:24:40.167Z,76.35
2023-11-23T01:25:42.061Z,76.96
2023-11-23T01:26:43.801Z,77.24
2023-11-23T01:27:46.456Z,75.92
2023-11-23T01:28:49.535Z,77.09
2023-11-23T01:29:52.271Z,76.37
2023-11-23T01:30:54.028Z,76.96
2023-11-23T01:31:55.799Z,76.58
2023-11-23T01:32:58.416Z,76.42
2023-11-23T01:34:00.567Z,76.75
2023-11-23T01:35:05.144Z,76.97
2023-11-23T01:36:07.515Z,76.29
2023-11-23T01:37:10.988Z,76.43
2023-11-23T01:38:12.651Z,76.10
2023-11-23T01:39:14.367Z,76.56
2023-11-23T01:40:17.043Z,76.64
2023-11-23T01:41:19.112Z,77.04
2023-11-23T01:42:21.248Z,76.87
2023-11-23T01:43:23.183Z,76.02
2023-11-23T01:44:26.449Z,76.24
2023-11-23T01:45:28.191Z,75.97
2023-11-23T01:46:29.981Z,75.90
2023-11-23T01:47:34.502Z,75.82
2023-11-23T01:48:36.712Z,75.47
2023-11-23T01:49:42.814Z,75.47
2023-11-23T01:50:46.693Z,75.98
2023-11-23T01:51:48.682Z,75.78
2023-11-23T01:52:50.437Z,75.72
2023-11-23T01:53:53.615Z,75.69
2023-11-23T01:54:55.759Z,75.76
2023-11-23T01:55:58.632Z,75.20
2023-11-23T01:57:00.735Z,75.33
2023-11-23T01:58:06.554Z,75.32
2023-11-23T01:59:09.261Z,75.53
2023-11-23T02:00:13.679Z,75.53
2023-11-23T02:01:15.569Z,75.27
2023-11-23T02:02:18.027Z,74.68
2023-11-23T02:03:22.492Z,74.68
2023-11-23T02:04:24.583Z,73.94
2023-11-23T02:05:29.061Z,74.53
2023-11-23T02:06:30.945Z,74.77
2023-11-23T02:07:32.678Z,74.75
2023-11-23T02:08:34.473Z,75.39
2023-11-23T02:09:36.501Z,74.70
2023-11-23T02:10:38.784Z,74.80
2023-11-23T02:11:40.636Z,74.29
2023-11-23T02:12:47.716Z,74.38
2023-11-23T02:13:50.297Z,74.69
2023-11-23T02:14:54.966Z,74.76
2023-11-23T02:15:58.143Z,74.99
2023-11-23T02:17:00.011Z,74.39
2023-11-23T02:18:02.262Z,74.64
2023-11-23T02:19:04.472Z,74.43
2023-11-23T02:20:07.542Z,74.66
2023-11-23T02:21:09.454Z,75.04
2023-11-23T02:22:11.325Z,74.94
2023-11-23T02:23:13.589Z,75.18
2023-11-23T02:24:16.726Z,75.25
2023-11-23T02:25:18.483Z,74.49
2023-11-23T02:26:20.368Z,74.63
2023-11-23T02:27:22.024Z,74.79
2023-11-23T02:28:24.293Z,75.46
2023-11-23T02:29:26.048Z,75.05
2023-11-23T02:30:27.779Z,75.27
2023-11-23T02:31:29.656Z,74.88
2023-11-23T02:32:31.568Z,75.91
2023-11-23T02:33:33.429Z,75.02
2023-11-23T02:34:36.458Z,74.93
2023-11-23T02:35:38.142Z,75.65
2023-11-23T02:36:39.817Z,75.67
2023-11-23T02:37:41.763Z,75.37
2023-11-23T02:38:43.497Z,75.41
2023-11-23T02:39:46.555Z,74.99
2023-11-23T02:40:48.288Z,75.38
2023-11-23T02:41:50.045Z,74.97
2023-11-23T02:42:51.818Z,75.35
2023-11-23T02:43:53.937Z,75.67
2023-11-23T02:44:56.706Z,75.35
2023-11-23T02:46:01.374Z,75.58
2023-11-23T02:47:05.880Z,75.10
2023-11-23T02:48:07.957Z,75.20
2023-11-23T02:49:10.024Z,74.99
2023-11-23T02:50:12.338Z,75.78
2023-11-23T02:51:14.952Z,75.35
2023-11-23T02:52:16.721Z,74.87
2023-11-23T02:53:21.053Z,74.78
2023-11-23T02:54:22.933Z,75.06
2023-11-23T02:55:26.033Z,74.89
2023-11-23T02:56:27.962Z,75.67
2023-11-23T02:57:29.928Z,74.94
2023-11-23T02:58:31.632Z,75.63
2023-11-23T02:59:36.840Z,74.83
2023-11-23T03:00:38.595Z,75.24
2023-11-23T03:01:43.248Z,74.91
2023-11-23T03:02:45.145Z,75.57
2023-11-23T03:03:46.922Z,75.69
2023-11-23T03:04:48.773Z,75.72
2023-11-23T03:05:50.504Z,75.20
2023-11-23T03:06:52.271Z,75.52
2023-11-23T03:07:54.051Z,75.28
2023-11-23T03:08:55.791Z,75.28
2023-11-23T03:09:57.734Z,75.25
2023-11-23T03:11:01.126Z,75.31
2023-11-23T03:12:03.472Z,75.11
2023-11-23T03:13:07.125Z,75.02
2023-11-23T03:14:08.821Z,75.58
2023-11-23T03:15:10.926Z,75.39
2023-11-23T03:16:12.703Z,74.64
2023-11-23T03:17:14.585Z,75.46
2023-11-23T03:18:16.473Z,74.88
2023-11-23T03:19:18.318Z,74.93
2023-11-23T03:20:20.013Z,74.87
2023-11-23T03:21:21.902Z,74.80
2023-11-23T03:22:23.707Z,75.69
2023-11-23T03:23:25.433Z,75.76
2023-11-23T03:24:27.146Z,75.19
2023-11-23T03:25:28.879Z,75.07
2023-11-23T03:26:33.259Z,75.57
2023-11-23T03:27:36.165Z,75.93
2023-11-23T03:28:40.122Z,75.15
2023-11-23T03:29:41.643Z,75.58
2023-11-23T03:30:43.308Z,76.06
2023-11-23T03:31:45.004Z,75.66
2023-11-23T03:32:46.849Z,76.03
2023-11-23T03:33:50.106Z,75.79
2023-11-23T03:34:51.933Z,76.02
2023-11-23T03:35:53.675Z,75.80
2023-11-23T03:36:55.624Z,74.95
2023-11-23T03:37:59.810Z,75.91
2023-11-23T03:39:01.514Z,75.35
2023-11-23T03:40:03.475Z,75.61
2023-11-23T03:41:05.458Z,75.85
2023-11-23T03:42:08.615Z,75.43
2023-11-23T03:43:10.504Z,76.08
2023-11-23T03:44:13.154Z,76.03
2023-11-23T03:45:15.134Z,76.84
2023-11-23T03:46:17.024Z,76.85
2023-11-23T03:47:19.578Z,76.06
2023-11-23T03:48:21.296Z,76.52
2023-11-23T03:49:23.327Z,76.73
2023-11-23T03:50:25.323Z,76.20
2023-11-23T03:51:27.282Z,76.30
2023-11-23T03:52:29.030Z,76.76
2023-11-23T03:53:31.044Z,76.71
2023-11-23T03:54:32.735Z,76.20
2023-11-23T03:55:34.388Z,76.08
2023-11-23T03:56:36.156Z,76.43
2023-11-23T03:57:39.196Z,76.21
2023-11-23T03:58:41.336Z,76.81
2023-11-23T03:59:43.092Z,76.16
2023-11-23T04:00:44.952Z,76.72
2023-11-23T04:01:47.912Z,76.58
2023-11-23T04:02:49.714Z,76.49
2023-11-23T04:03:51.542Z,76.66
2023-11-23T04:04:53.231Z,76.67
2023-11-23T04:05:54.845Z,77.17
2023-11-23T04:06:56.585Z,77.06
2023-11-23T04:07:58.347Z,77.67
2023-11-23T04:08:59.992Z,77.01
2023-11-23T04:10:01.913Z,77.29
2023-11-23T04:11:03.787Z,77.46
2023-11-23T04:12:07.247Z,77.75
2023-11-23T04:13:10.396Z,78.21
2023-11-23T04:14:12.238Z,77.47
2023-11-23T04:15:13.987Z,77.43
2023-11-23T04:16:15.731Z,77.33
2023-11-23T04:17:17.582Z,77.38
2023-11-23T04:18:19.489Z,77.84
2023-11-23T04:19:21.117Z,77.69
2023-11-23T04:20:22.812Z,77.63
2023-11-23T04:21:24.680Z,78.17
2023-11-23T04:22:26.523Z,78.21
2023-11-23T04:23:28.136Z,78.44
2023-11-23T04:24:29.833Z,78.30
2023-11-23T04:25:31.445Z,77.70
2023-11-23T04:26:36.379Z,78.44
2023-11-23T04:27:38.097Z,78.24
2023-11-23T04:28:41.474Z,78.24
2023-11-23T04:29:43.452Z,78.42
2023-11-23T04:30:45.432Z,78.65
2023-11-23T04:31:47.121Z,78.60
2023-11-23T04:32:48.934Z,78.18
2023-11-23T04:33:50.750Z,78.23
2023-11-23T04:34:52.662Z,78.13
2023-11-23T04:35:54.371Z,78.98
2023-11-23T04:36:56.245Z,78.49
2023-11-23T04:37:58.051Z,78.61
2023-11-23T04:38:59.924Z,78.96
2023-11-23T04:40:01.690Z,79.23
2023-11-23T04:41:03.623Z,79.63
2023-11-23T04:42:06.087Z,79.31
2023-11-23T04:43:07.834Z,79.32
2023-11-23T04:44:10.930Z,79.55
2023-11-23T04:45:12.936Z,79.60
2023-11-23T04:46:14.677Z,79.92
2023-11-23T04:47:16.477Z,80.20
2023-11-23T04:48:18.263Z,79.55
2023-11-23T04:49:19.996Z,80.04
2023-11-23T04:50:22.720Z,80.15
2023-11-23T04:51:24.605Z,80.25
2023-11-23T04:52:26.517Z,80.08
2023-11-23T04:53:28.242Z,80.40
2023-11-23T04:54:30.094Z,79.91
2023-11-23T04:55:32.295Z,79.77
2023-11-23T04:56:36.768Z,79.42
2023-11-23T04:57:38.610Z,79.61
2023-11-23T04:58:40.317Z,80.31
2023-11-23T04:59:43.328Z,80.68
2023-11-23T05:00:45.055Z,80.16
2023-11-23T05:01:46.879Z,79.96
2023-11-23T05:02:49.043Z,80.08
2023-11-23T05:03:51.013Z,80.13
2023-11-23T05:04:52.973Z,80.98
2023-11-23T05:05:54.707Z,80.58
2023-11-23T05:06:57.049Z,80.68
2023-11-23T05:07:58.961Z,80.89
2023-11-23T05:09:00.695Z,80.55
2023-11-23T05:10:02.916Z,81.17
2023-11-23T05:11:04.885Z,80.73
2023-11-23T05:12:07.394Z,80.89
2023-11-23T05:13:09.144Z,80.83
2023-11-23T05:14:10.966Z,81.48
2023-11-23T05:15:14.205Z,81.21
2023-11-23T05:16:16.158Z,81.38
2023-11-23T05:17:17.944Z,81.38
2023-11-23T05:18:20.070Z,81.53
2023-11-23T05:19:31.841Z,81.71
2023-11-23T05:20:42.032Z,81.87
2023-11-23T05:21:43.716Z,82.46
2023-11-23T05:22:45.549Z,82.03
2023-11-23T05:23:47.266Z,81.90
2023-11-23T05:24:49.116Z,81.78
2023-11-23T05:25:51.064Z,81.58
2023-11-23T05:26:52.754Z,82.26
2023-11-23T05:27:54.496Z,81.97
2023-11-23T05:28:56.164Z,81.77
2023-11-23T05:29:57.966Z,81.83
2023-11-23T05:31:01.309Z,81.88
2023-11-23T05:32:03.386Z,81.58
2023-11-23T05:33:05.176Z,82.04
2023-11-23T05:34:06.940Z,81.97
2023-11-23T05:35:09.564Z,82.19
2023-11-23T05:36:11.645Z,81.55
2023-11-23T05:37:13.585Z,81.44
2023-11-23T05:38:15.371Z,81.85
2023-11-23T05:39:17.214Z,81.87
2023-11-23T05:40:19.348Z,81.83
2023-11-23T05:41:21.014Z,82.40
2023-11-23T05:42:22.831Z,82.67
2023-11-23T05:43:24.624Z,82.18
2023-11-23T05:44:26.349Z,82.08
2023-11-23T05:45:28.089Z,81.62
2023-11-23T05:46:31.280Z,82.56
2023-11-23T05:47:33.073Z,82.47
2023-11-23T05:48:35.051Z,82.02
2023-11-23T05:49:36.777Z,81.88
2023-11-23T05:50:38.427Z,82.23
2023-11-23T05:51:40.191Z,82.45
2023-11-23T05:52:42.707Z,82.64
2023-11-23T05:53:44.348Z,82.90
2023-11-23T05:54:46.135Z,82.44
2023-11-23T05:55:47.921Z,83.41
2023-11-23T05:56:49.840Z,83.02
2023-11-23T05:57:51.568Z,83.09
2023-11-23T05:58:53.568Z,83.30
2023-11-23T05:59:55.309Z,83.05
2023-11-23T06:01:03.796Z,83.45
2023-11-23T06:02:13.477Z,83.51
2023-11-23T06:03:15.315Z,83.32
2023-11-23T06:04:17.446Z,83.44
2023-11-23T06:05:19.760Z,83.97
2023-11-23T06:06:23.210Z,83.41
2023-11-23T06:07:25.092Z,83.07
2023-11-23T06:08:28.349Z,83.60
2023-11-23T06:09:30.072Z,83.11
2023-11-23T06:10:31.857Z,83.16
2023-11-23T06:11:33.548Z,83.74
2023-11-23T06:12:35.324Z,83.70
2023-11-23T06:13:37.070Z,83.86
2023-11-23T06:14:38.939Z,83.91
2023-11-23T06:15:40.599Z,84.08
2023-11-23T06:16:42.440Z,83.85
2023-11-23T06:17:45.586Z,83.65
2023-11-23T06:18:47.353Z,84.29
2023-11-23T06:19:49.229Z,84.56
2023-11-23T06:20:53.993Z,83.75
2023-11-23T06:21:56.046Z,83.64
2023-11-23T06:22:57.752Z,84.01
2023-11-23T06:23:59.766Z,84.23
2023-11-23T06:25:01.703Z,84.32
2023-11-23T06:26:03.367Z,84.53
2023-11-23T06:27:05.205Z,84.78
2023-11-23T06:28:14.748Z,84.40
2023-11-23T06:29:17.651Z,84.41
2023-11-23T06:30:21.779Z,84.62
2023-11-23T06:31:23.532Z,84.62
2023-11-23T06:32:25.259Z,85.08
2023-11-23T06:33:28.900Z,84.47
2023-11-23T06:34:30.688Z,84.64
2023-11-23T06:35:32.380Z,84.03
2023-11-23T06:36:34.400Z,84.70
2023-11-23T06:37:36.168Z,84.62
2023-11-23T06:38:37.907Z,85.07
2023-11-23T06:39:39.820Z,84.87
2023-11-23T06:40:41.600Z,84.44
2023-11-23T06:41:43.398Z,84.57
2023-11-23T06:42:46.113Z,84.83
2023-11-23T06:43:50.105Z,84.10
2023-11-23T06:44:51.841Z,84.78
2023-11-23T06:45:53.717Z,84.30
2023-11-23T06:46:55.383Z,84.99
2023-11-23T06:47:57.511Z,84.61
2023-11-23T06:49:00.867Z,84.57
2023-11-23T06:50:02.709Z,84.91
2023-11-23T06:51:04.847Z,85.00
2023-11-23T06:52:06.444Z,84.78
2023-11-23T06:53:08.060Z,84.82
2023-11-23T06:54:09.847Z,85.17
2023-11-23T06:55:11.839Z,85.17
2023-11-23T06:56:14.474Z,84.93
2023-11-23T06:57:16.206Z,85.21
2023-11-23T06:58:18.031Z,85.10
2023-11-23T06:59:19.856Z,85.21
2023-11-23T07:00:21.890Z,85.69
2023-11-23T07:01:23.565Z,85.59
2023-11-23T07:02:25.584Z,85.78
2023-11-23T07:03:27.415Z,85.57
2023-11-23T07:04:30.723Z,85.70
2023-11-23T07:05:32.607Z,86.03
2023-11-23T07:06:34.412Z,85.91
2023-11-23T07:07:36.264Z,85.99
2023-11-23T07:08:39.345Z,85.44
2023-11-23T07:09:41.398Z,85.77
2023-11-23T07:10:43.195Z,85.86
2023-11-23T07:11:45.373Z,86.39
2023-11-23T07:12:47.903Z,86.13
2023-11-23T07:13:50.085Z,86.28
2023-11-23T07:14:51.804Z,86.49
2023-11-23T07:15:54.462Z,86.83
2023-11-23T07:16:56.403Z,86.68
2023-11-23T07:18:01.069Z,86.45
2023-11-23T07:19:03.340Z,86.49
2023-11-23T07:20:08.642Z,85.96
2023-11-23T07:21:10.389Z,86.54
2023-11-23T07:22:12.607Z,86.63
2023-11-23T07:23:14.459Z,86.64
2023-11-23T07:24:16.305Z,86.80
2023-11-23T07:25:18.016Z,88.01
2023-11-23T07:26:19.927Z,87.04
2023-11-23T07:27:21.605Z,87.75
2023-11-23T07:28:23.378Z,87.50
2023-11-23T07:29:25.133Z,87.65
2023-11-23T07:30:27.007Z,87.33
2023-11-23T07:31:28.827Z,88.27
2023-11-23T07:32:35.872Z,88.30
2023-11-23T07:33:37.726Z,88.55
2023-11-23T07:34:39.639Z,88.47
2023-11-23T07:35:42.813Z,88.25
2023-11-23T07:36:44.548Z,88.08
2023-11-23T07:37:46.384Z,88.72
2023-11-23T07:38:48.260Z,88.52
2023-11-23T07:39:50.140Z,88.59
2023-11-23T07:40:54.937Z,88.59
2023-11-23T07:41:56.748Z,88.14
2023-11-23T07:42:58.833Z,88.79
2023-11-23T07:44:00.566Z,88.53
2023-11-23T07:45:02.196Z,88.43
2023-11-23T07:46:03.976Z,88.25
2023-11-23T07:47:06.128Z,87.60
2023-11-23T07:48:07.924Z,88.15
2023-11-23T07:49:09.839Z,87.51
2023-11-23T07:50:12.251Z,87.71
2023-11-23T07:51:16.171Z,87.40
2023-11-23T07:52:17.701Z,88.40
2023-11-23T07:53:22.341Z,88.51
2023-11-23T07:54:24.940Z,87.63
2023-11-23T07:55:26.625Z,87.42
2023-11-23T07:56:28.334Z,87.23
2023-11-23T07:57:33.417Z,87.38
2023-11-23T07:58:35.147Z,87.29
2023-11-23T07:59:36.971Z,87.32
2023-11-23T08:00:38.815Z,87.16
2023-11-23T08:01:40.552Z,86.51
2023-11-23T08:02:42.377Z,87.43
2023-11-23T08:03:44.274Z,87.16
2023-11-23T08:04:46.229Z,87.24
2023-11-23T08:05:47.985Z,86.89
2023-11-23T08:06:51.856Z,86.50
2023-11-23T08:07:54.498Z,87.71
2023-11-23T08:08:56.424Z,87.05
2023-11-23T08:09:58.110Z,86.68
2023-11-23T08:10:59.776Z,87.43
2023-11-23T08:12:01.614Z,86.73
2023-11-23T08:13:03.262Z,86.51
2023-11-23T08:14:06.619Z,86.74
2023-11-23T08:15:09.767Z,86.34
2023-11-23T08:16:11.491Z,86.72
2023-11-23T08:17:13.404Z,86.33
2023-11-23T08:18:15.234Z,86.48
2023-11-23T08:19:17.148Z,86.54
2023-11-23T08:20:18.932Z,86.64
2023-11-23T08:21:20.653Z,86.34
2023-11-23T08:22:23.820Z,85.73
2023-11-23T08:23:25.542Z,85.80
2023-11-23T08:24:27.366Z,85.82
2023-11-23T08:25:29.102Z,85.93
2023-11-23T08:26:30.935Z,86.34
2023-11-23T08:27:32.753Z,85.28
2023-11-23T08:28:34.812Z,84.91
2023-11-23T08:29:36.528Z,85.85
2023-11-23T08:30:38.543Z,85.86
2023-11-23T08:31:40.505Z,85.71
2023-11-23T08:32:42.474Z,86.34
2023-11-23T08:33:44.301Z,85.41
2023-11-23T08:34:46.107Z,85.52
2023-11-23T08:35:47.803Z,85.29
2023-11-23T08:36:49.506Z,85.25
2023-11-23T08:37:52.642Z,85.96
2023-11-23T08:38:54.428Z,85.22
2023-11-23T08:39:56.162Z,85.77
2023-11-23T08:40:57.841Z,85.59
2023-11-23T08:41:59.614Z,85.77
2023-11-23T08:43:01.336Z,85.56
2023-11-23T08:44:03.576Z,85.87
2023-11-23T08:45:06.532Z,85.64
2023-11-23T08:46:08.598Z,85.56
2023-11-23T08:47:10.474Z,86.00
2023-11-23T08:48:12.300Z,86.07
2023-11-23T08:49:14.172Z,85.37
2023-11-23T08:50:15.877Z,85.61
2023-11-23T08:51:17.748Z,86.11
2023-11-23T08:52:19.588Z,86.12
2023-11-23T08:53:22.917Z,85.86
2023-11-23T08:54:24.929Z,86.40
2023-11-23T08:55:26.852Z,85.94
2023-11-23T08:56:28.531Z,85.98
2023-11-23T08:57:30.329Z,86.21
2023-11-23T08:58:32.114Z,86.34
2023-11-23T08:59:33.842Z,86.01
2023-11-23T09:00:35.735Z,86.40
2023-11-23T09:01:39.787Z,86.22
2023-11-23T09:02:42.660Z,86.01
2023-11-23T09:03:44.955Z,86.30
2023-11-23T09:04:46.988Z,86.84
2023-11-23T09:05:53.727Z,86.32
2023-11-23T09:06:55.504Z,86.96
2023-11-23T09:07:59.912Z,86.91
2023-11-23T09:09:03.046Z,86.77
2023-11-23T09:10:05.685Z,86.01
2023-11-23T09:11:09.844Z,86.63
2023-11-23T09:12:11.548Z,86.49
2023-11-23T09:13:13.403Z,86.34
2023-11-23T09:14:17.584Z,86.88
2023-11-23T09:15:19.875Z,86.52
2023-11-23T09:16:22.622Z,86.27
2023-11-23T09:17:24.256Z,86.18
2023-11-23T09:18:26.224Z,86.05
2023-11-23T09:19:27.973Z,85.65
2023-11-23T09:20:31.534Z,86.07
2023-11-23T09:21:33.515Z,86.25
2023-11-23T09:22:35.304Z,86.04
2023-11-23T09:23:37.316Z,85.40
2023-11-23T09:24:40.688Z,86.23
2023-11-23T09:25:42.533Z,86.10
2023-11-23T09:26:44.370Z,86.24
2023-11-23T09:27:46.057Z,85.78
2023-11-23T09:28:47.734Z,86.34
2023-11-23T09:29:49.656Z,86.00
2023-11-23T09:30:51.748Z,85.41
2023-11-23T09:31:53.457Z,85.99
2023-11-23T09:32:55.505Z,85.75
2023-11-23T09:33:57.682Z,86.10
2023-11-23T09:34:59.401Z,85.83
2023-11-23T09:36:01.340Z,85.98
2023-11-23T09:37:05.375Z,85.67
2023-11-23T09:38:07.156Z,85.63
2023-11-23T09:39:08.907Z,86.25
2023-11-23T09:40:17.638Z,85.99
2023-11-23T09:41:22.330Z,85.40
2023-11-23T09:42:28.732Z,85.23
2023-11-23T09:43:32.469Z,85.79
2023-11-23T09:44:36.927Z,85.49
2023-11-23T09:45:39.411Z,85.83
2023-11-23T09:46:41.980Z,85.54
2023-11-23T09:47:45.034Z,85.77
2023-11-23T09:48:48.776Z,85.94
2023-11-23T09:49:50.670Z,85.29
2023-11-23T09:50:52.787Z,85.63
2023-11-23T09:51:57.156Z,86.11
2023-11-23T09:53:00.474Z,86.04
2023-11-23T09:54:06.863Z,85.84
2023-11-23T09:55:10.199Z,85.38
2023-11-23T09:56:15.482Z,85.70
2023-11-23T09:57:17.306Z,85.54
2023-11-23T09:58:19.620Z,84.94
2023-11-23T09:59:21.317Z,85.23
2023-11-23T10:00:23.482Z,85.45
2023-11-23T10:01:26.722Z,86.17
2023-11-23T10:02:29.344Z,85.38
2023-11-23T10:03:33.421Z,85.50
2023-11-23T10:04:35.383Z,85.65
2023-11-23T10:05:37.833Z,86.03
2023-11-23T10:06:40.547Z,85.50
2023-11-23T10:07:43.210Z,85.70
2023-11-23T10:08:44.882Z,85.49
2023-11-23T10:09:46.665Z,85.60
2023-11-23T10:10:48.269Z,85.98
2023-11-23T10:11:51.328Z,85.69
2023-11-23T10:12:53.009Z,85.56
2023-11-23T10:13:54.673Z,85.97
2023-11-23T10:14:56.524Z,85.36
2023-11-23T10:15:58.352Z,85.15
2023-11-23T10:17:02.123Z,85.55
2023-11-23T10:18:07.188Z,85.35
2023-11-23T10:19:20.094Z,85.66
2023-11-23T10:20:21.853Z,85.13
2023-11-23T10:21:23.634Z,85.13
2023-11-23T10:22:26.209Z,85.73
2023-11-23T10:23:28.164Z,85.75
2023-11-23T10:24:30.088Z,85.63
2023-11-23T10:25:32.485Z,85.49
2023-11-23T10:26:35.052Z,86.05
2023-11-23T10:27:38.241Z,85.76
2023-11-23T10:28:40.003Z,85.88
2023-11-23T10:29:41.834Z,85.67
2023-11-23T10:30:43.618Z,85.96
2023-11-23T10:31:48.357Z,85.55
2023-11-23T10:32:51.212Z,85.78
2023-11-23T10:33:53.695Z,85.13
2023-11-23T10:34:56.688Z,85.33
2023-11-23T10:36:03.155Z,85.57
2023-11-23T10:37:05.780Z,85.47
2023-11-23T10:38:08.927Z,85.52
2023-11-23T10:39:11.225Z,85.54
2023-11-23T10:40:14.581Z,85.59
2023-11-23T10:41:17.789Z,85.60
2023-11-23T10:42:19.503Z,85.32
2023-11-23T10:43:22.835Z,85.64
2023-11-23T10:44:34.077Z,85.39
2023-11-23T10:45:37.277Z,85.27
2023-11-23T10:46:39.841Z,85.39
2023-11-23T10:47:44.516Z,85.56
2023-11-23T10:48:47.033Z,85.16
2023-11-23T10:49:49.754Z,85.72
2023-11-23T10:50:51.860Z,84.94
2023-11-23T10:51:55.445Z,86.03
2023-11-23T10:52:58.501Z,85.95
2023-11-23T10:54:00.375Z,85.72
2023-11-23T10:55:02.052Z,85.46
2023-11-23T10:56:08.034Z,85.80
2023-11-23T10:57:11.481Z,85.56
2023-11-23T10:58:17.862Z,85.84
2023-11-23T10:59:22.466Z,85.47
2023-11-23T11:00:26.039Z,84.93
2023-11-23T11:01:29.845Z,84.96
2023-11-23T11:02:34.882Z,85.55
2023-11-23T11:03:37.257Z,85.57
2023-11-23T11:04:39.383Z,85.78
2023-11-23T11:05:41.285Z,85.82
2023-11-23T11:06:46.899Z,85.79
2023-11-23T11:07:54.472Z,86.13
2023-11-23T11:08:56.398Z,86.25
2023-11-23T11:09:58.947Z,86.07
2023-11-23T11:11:12.759Z,86.20
2023-11-23T11:12:14.649Z,86.63
2023-11-23T11:13:17.455Z,86.71
2023-11-23T11:14:19.538Z,86.59
2023-11-23T11:15:22.989Z,86.35
2023-11-23T11:16:32.577Z,86.66
2023-11-23T11:17:38.677Z,86.57
2023-11-23T11:18:40.654Z,87.10
2023-11-23T11:19:43.160Z,87.14
2023-11-23T11:20:45.438Z,87.78
2023-11-23T11:21:47.316Z,87.85
2023-11-23T11:22:58.128Z,87.26
2023-11-23T11:23:59.918Z,87.35
2023-11-23T11:25:02.077Z,87.70
2023-11-23T11:26:08.001Z,87.74
2023-11-23T11:27:10.401Z,87.63
2023-11-23T11:28:14.584Z,87.73
2023-11-23T11:29:17.292Z,88.32
2023-11-23T11:30:19.125Z,88.24
2023-11-23T11:31:29.706Z,88.69
2023-11-23T11:32:34.918Z,88.60
2023-11-23T11:33:37.824Z,88.54
2023-11-23T11:34:39.631Z,88.31
2023-11-23T11:35:45.735Z,88.54
2023-11-23T11:36:51.969Z,89.20
2023-11-23T11:37:53.799Z,89.53
2023-11-23T11:38:55.982Z,89.68
2023-11-23T11:39:59.634Z,89.71
2023-11-23T11:41:04.166Z,90.29
2023-11-23T11:42:07.784Z,89.72
2023-11-23T11:43:10.600Z,90.60
2023-11-23T11:44:12.259Z,90.66
2023-11-23T11:45:14.203Z,90.32
2023-11-23T11:46:16.412Z,90.62
2023-11-23T11:47:19.669Z,90.53
2023-11-23T11:48:21.741Z,91.27
2023-11-23T11:49:24.020Z,91.47
2023-11-23T11:50:26.032Z,91.79
2023-11-23T11:51:28.625Z,91.63
2023-11-23T11:52:31.268Z,91.76
2023-11-23T11:53:33.118Z,91.40
2023-11-23T11:54:35.069Z,91.44
2023-11-23T11:55:37.276Z,91.59
2023-11-23T11:56:41.375Z,90.98
2023-11-23T11:57:42.986Z,91.22
2023-11-23T11:58:45.920Z,90.89
2023-11-23T11:59:47.584Z,91.23
2023-11-23T12:00:49.313Z,91.93
2023-11-23T12:01:51.441Z,91.57
2023-11-23T12:02:55.083Z,91.96
2023-11-23T12:03:57.096Z,91.61
2023-11-23T12:05:00.376Z,92.27
2023-11-23T12:06:02.683Z,92.18
2023-11-23T12:07:13.141Z,91.96
2023-11-23T12:08:14.875Z,92.02
2023-11-23T12:09:18.156Z,91.61
2023-11-23T12:10:20.920Z,91.86
2023-11-23T12:11:27.048Z,91.85
2023-11-23T12:12:30.425Z,92.58
2023-11-23T12:13:32.926Z,91.89
2023-11-23T12:14:35.773Z,92.14
2023-11-23T12:15:40.476Z,92.35
2023-11-23T12:16:42.784Z,92.54
2023-11-23T12:17:50.982Z,92.52
2023-11-23T12:18:54.165Z,92.68
2023-11-23T12:19:57.186Z,92.64
2023-11-23T12:21:00.098Z,92.40
2023-11-23T12:22:01.904Z,92.38
2023-11-23T12:23:04.240Z,92.81
2023-11-23T12:24:07.151Z,93.05
2023-11-23T12:25:09.729Z,93.46
2023-11-23T12:26:12.706Z,93.80
2023-11-23T12:27:16.316Z,93.29
2023-11-23T12:28:19.069Z,93.95
2023-11-23T12:29:21.603Z,93.93
2023-11-23T12:30:23.489Z,93.53
2023-11-23T12:31:25.269Z,93.66
2023-11-23T12:32:27.120Z,93.65
2023-11-23T12:33:28.825Z,93.33
2023-11-23T12:34:32.354Z,93.27
2023-11-23T12:35:34.334Z,93.85
2023-11-23T12:36:36.190Z,93.34
2023-11-23T12:37:38.192Z,93.66
2023-11-23T12:38:40.199Z,94.12
2023-11-23T12:39:42.022Z,94.18
2023-11-23T12:40:43.868Z,93.30
2023-11-23T12:41:52.858Z,93.46
2023-11-23T12:42:58.959Z,93.96
2023-11-23T12:44:00.507Z,94.12
2023-11-23T12:45:02.306Z,94.47
2023-11-23T12:46:07.191Z,94.47
2023-11-23T12:47:10.029Z,94.85
2023-11-23T12:48:12.585Z,94.89
2023-11-23T12:49:14.480Z,94.90
2023-11-23T12:50:17.632Z,94.85
2023-11-23T12:51:19.371Z,94.46
2023-11-23T12:52:21.273Z,95.11
2023-11-23T12:53:22.986Z,95.25
2023-11-23T12:54:25.323Z,95.63
2023-11-23T12:55:27.041Z,95.40
2023-11-23T12:56:28.687Z,95.67
2023-11-23T12:57:30.362Z,95.64
2023-11-23T12:58:32.167Z,96.05
2023-11-23T12:59:33.791Z,95.55
2023-11-23T13:00:35.540Z,95.57
2023-11-23T13:01:37.240Z,96.14
2023-11-23T13:02:39.064Z,96.58
2023-11-23T13:03:40.990Z,96.53
2023-11-23T13:04:42.844Z,96.31
2023-11-23T13:05:45.883Z,96.29
2023-11-23T13:06:47.626Z,96.44
2023-11-23T13:07:49.481Z,96.25
2023-11-23T13:08:51.416Z,96.97
2023-11-23T13:09:53.098Z,97.04
2023-11-23T13:10:54.799Z,97.53
2023-11-23T13:11:56.468Z,96.87
2023-11-23T13:12:58.191Z,97.13
2023-11-23T13:13:59.942Z,97.30
2023-11-23T13:15:01.880Z,97.39
2023-11-23T13:16:04.154Z,97.48
2023-11-23T13:17:05.974Z,97.29
2023-11-23T13:18:07.755Z,97.43
2023-11-23T13:19:21.301Z,97.25
2023-11-23T13:20:31.593Z,97.20
2023-11-23T13:21:34.833Z,97.56
2023-11-23T13:22:36.880Z,97.72
2023-11-23T13:23:38.737Z,97.53
2023-11-23T13:24:40.520Z,97.67
2023-11-23T13:25:42.230Z,97.85